Time;durP1;ratioP1;P1;durP2;ratioP2;P2;SDS_P1;SDS_P2;PMS_P1;PMS_P2;Temp;Humidity;BMP_temperature;BMP_pressure;BME280_temperature;BME280_humidity;BME280_pressure;Samples;Min_cycle;Max_cycle;Signal;HPM_P1;HPM_P2
2023/12/11 00:03:56;;;;;;;3.57;2.20;;;;;;;17.38;52.55;95841.44;10383187;28;20042;-32
2023/12/11 00:08:57;;;;;;;3.50;2.33;;;;;;;17.38;53.34;95818.66;10387261;28;20047;-30
2023/12/11 00:13:57;;;;;;;5.17;2.10;;;;;;;17.36;53.64;95818.69;10381438;28;20396;-30
2023/12/11 00:18:58;;;;;;;3.70;2.20;;;;;;;17.34;53.05;95835.53;10382201;28;20509;-31
2023/12/11 00:23:58;;;;;;;3.83;2.37;;;;;;;17.35;53.38;95838.91;10386730;28;20060;-31
2023/12/11 00:28:58;;;;;;;5.33;2.73;;;;;;;17.32;53.13;95857.47;10382522;28;20503;-31
2023/12/11 00:33:59;;;;;;;3.70;2.47;;;;;;;17.34;53.98;95860.81;10382886;28;20045;-31
2023/12/11 00:39:03;;;;;;;3.03;2.50;;;;;;;17.34;53.32;95849.88;10387024;28;20079;-30
2023/12/11 00:44:04;;;;;;;3.55;2.03;;;;;;;17.35;54.52;95860.00;10383368;28;20239;-30
2023/12/11 00:49:06;;;;;;;4.80;2.05;;;;;;;17.34;53.19;95872.66;10390364;28;20946;-29
2023/12/11 00:54:06;;;;;;;4.30;1.95;;;;;;;17.34;54.07;95860.00;10378568;28;20038;-30
2023/12/11 00:59:07;;;;;;;5.43;2.63;;;;;;;17.32;54.07;95864.25;10379504;28;20484;-31
2023/12/11 01:04:07;;;;;;;5.87;2.30;;;;;;;17.32;53.57;95856.66;10399483;28;20113;-31
2023/12/11 01:09:07;;;;;;;2.53;2.00;;;;;;;17.28;53.74;95858.38;10393390;28;20090;-30
2023/12/11 01:14:10;;;;;;;3.97;2.07;;;;;;;17.30;53.82;95845.69;10397066;28;20306;-32
2023/12/11 01:19:10;;;;;;;5.10;2.08;;;;;;;17.29;53.47;95854.13;10401129;28;20565;-30
2023/12/11 01:24:12;;;;;;;8.33;3.27;;;;;;;17.29;54.54;95867.63;10393890;28;20087;-31
2023/12/11 01:29:12;;;;;;;6.55;2.22;;;;;;;17.28;54.33;95873.56;10399763;28;20295;-31
2023/12/11 01:34:12;;;;;;;6.13;2.20;;;;;;;17.28;54.46;95887.88;10396309;28;20046;-30
2023/12/11 01:39:13;;;;;;;5.80;2.00;;;;;;;17.27;54.74;95881.16;10400296;28;20033;-30
2023/12/11 01:44:14;;;;;;;7.00;2.33;;;;;;;17.29;54.44;95876.91;10402155;28;20041;-30
2023/12/11 01:49:15;;;;;;;3.73;1.87;;;;;;;17.27;54.28;95883.69;10394099;28;20048;-30
2023/12/11 01:54:18;;;;;;;5.93;1.90;;;;;;;17.28;54.60;95867.66;10396326;28;20052;-30
2023/12/11 01:59:18;;;;;;;4.85;2.20;;;;;;;17.28;54.87;95885.34;10409110;28;20079;-30
2023/12/11 02:04:19;;;;;;;7.13;1.92;;;;;;;17.22;55.12;95870.22;10396305;28;20037;-31
2023/12/11 02:09:19;;;;;;;2.37;1.73;;;;;;;17.26;54.60;95887.06;10402449;28;20037;-30
2023/12/11 02:14:19;;;;;;;4.97;2.50;;;;;;;17.26;54.44;95879.47;10400277;28;20042;-30
2023/12/11 02:19:20;;;;;;;4.17;3.13;;;;;;;17.26;54.13;95887.88;10390803;28;20064;-30
2023/12/11 02:24:27;;;;;;;4.33;2.20;;;;;;;17.26;54.28;95899.72;10398632;28;20033;-31
2023/12/11 02:29:28;;;;;;;6.50;1.88;;;;;;;17.28;54.92;95890.41;10396577;28;20068;-32
2023/12/11 02:34:28;;;;;;;5.50;2.00;;;;;;;17.25;54.14;95882.84;10411855;28;20463;-31
2023/12/11 02:39:28;;;;;;;3.07;1.57;;;;;;;17.24;54.41;95886.25;10393283;28;20133;-30
2023/12/11 02:44:29;;;;;;;2.20;1.90;;;;;;;17.23;54.65;95887.09;10403813;28;20193;-31
2023/12/11 02:49:29;;;;;;;9.93;2.27;;;;;;;17.23;54.70;95877.81;10399959;28;20114;-30
2023/12/11 02:54:29;;;;;;;5.60;1.85;;;;;;;17.25;54.79;95873.56;10410268;28;20116;-31
2023/12/11 02:59:30;;;;;;;4.60;1.70;;;;;;;17.24;54.89;95883.72;10399230;28;20032;-30
2023/12/11 03:04:30;;;;;;;5.27;1.70;;;;;;;17.24;54.48;95893.84;10394985;28;20050;-31
2023/12/11 03:09:30;;;;;;;3.73;1.87;;;;;;;17.23;55.09;95876.97;10400375;28;20033;-31
2023/12/11 03:14:31;;;;;;;4.37;2.33;;;;;;;17.21;53.99;95863.47;10404667;28;20123;-30
2023/12/11 03:19:32;;;;;;;3.63;1.83;;;;;;;17.22;54.38;95855.91;10400351;28;20033;-30
2023/12/11 03:24:33;;;;;;;4.50;1.75;;;;;;;17.24;54.22;95864.28;10403395;28;20041;-30
2023/12/11 03:29:33;;;;;;;6.50;2.17;;;;;;;17.23;54.36;95841.56;10400220;28;20040;-30
2023/12/11 03:34:33;;;;;;;4.90;1.83;;;;;;;17.24;54.13;95828.06;10399443;28;20129;-31
2023/12/11 03:39:34;;;;;;;7.40;2.60;;;;;;;17.23;54.56;95821.34;10389670;28;20075;-30
2023/12/11 03:44:34;;;;;;;3.80;1.50;;;;;;;17.23;55.07;95812.03;10406947;28;20039;-30
2023/12/11 03:49:35;;;;;;;3.63;1.88;;;;;;;17.22;54.18;95828.06;10389719;28;20303;-31
2023/12/11 03:54:38;;;;;;;4.57;1.83;;;;;;;17.23;54.49;95842.38;10408980;28;20037;-30
2023/12/11 03:59:38;;;;;;;3.72;1.77;;;;;;;17.20;54.28;95846.63;10396111;28;20029;-30
2023/12/11 04:04:40;;;;;;;4.37;2.20;;;;;;;17.23;54.92;95852.50;10404388;28;20037;-30
2023/12/11 04:09:41;;;;;;;7.00;2.40;;;;;;;17.22;54.93;95852.50;10398559;28;20060;-30
2023/12/11 04:14:41;;;;;;;7.47;1.93;;;;;;;17.22;54.53;95839.88;10394401;28;20045;-31
2023/12/11 04:19:41;;;;;;;2.67;1.70;;;;;;;17.20;54.39;95831.47;10399798;28;20372;-31
2023/12/11 04:24:42;;;;;;;5.70;2.30;;;;;;;17.23;54.09;95831.44;10395904;28;20284;-31
2023/12/11 04:29:42;;;;;;;3.40;1.73;;;;;;;17.23;54.25;95851.69;10398363;28;20275;-30
2023/12/11 04:34:42;;;;;;;1.97;1.57;;;;;;;17.13;54.33;95810.47;10390515;28;20094;-30
2023/12/11 04:39:43;;;;;;;5.50;1.57;;;;;;;17.25;52.23;95817.09;10391818;28;20116;-31
2023/12/11 04:44:44;;;;;;;3.70;1.75;;;;;;;17.25;54.21;95805.25;10394888;28;20025;-30
2023/12/11 04:49:44;;;;;;;4.47;1.23;;;;;;;17.26;53.33;95811.19;10391404;28;20036;-31
2023/12/11 04:54:44;;;;;;;4.23;1.63;;;;;;;17.23;54.38;95817.09;10383979;28;20407;-30
2023/12/11 04:59:45;;;;;;;3.87;1.27;;;;;;;17.27;51.90;95821.28;10399986;28;20049;-30
2023/12/11 05:04:45;;;;;;;3.33;1.87;;;;;;;17.29;51.57;95804.41;10394558;28;20292;-31
2023/12/11 05:09:45;;;;;;;3.37;1.70;;;;;;;17.29;51.34;95806.06;10395146;28;20431;-31
2023/12/11 05:14:46;;;;;;;2.78;1.33;;;;;;;17.30;51.87;95803.53;10393608;28;20447;-30
2023/12/11 05:19:46;;;;;;;7.05;1.45;;;;;;;17.30;52.66;95801.00;10389756;28;20116;-30
2023/12/11 05:24:48;;;;;;;2.13;1.30;;;;;;;17.32;51.56;95818.72;10398486;28;20029;-31
2023/12/11 05:29:48;;;;;;;3.15;1.20;;;;;;;17.34;49.30;95817.00;10393402;28;20503;-30
2023/12/11 05:34:48;;;;;;;4.40;2.50;;;;;;;17.36;49.53;95810.25;10384269;28;20049;-31
2023/12/11 05:39:49;;;;;;;1.87;1.10;;;;;;;17.37;49.74;95824.59;10385371;28;20288;-31
2023/12/11 05:44:49;;;;;;;3.87;1.73;;;;;;;17.34;49.25;95795.06;10391371;28;20040;-31
2023/12/11 05:49:49;;;;;;;2.37;1.10;;;;;;;17.39;49.11;95797.56;10395251;28;20279;-30
2023/12/11 05:54:50;;;;;;;1.83;1.40;;;;;;;17.44;48.53;95780.66;10392191;28;20034;-30
2023/12/11 05:59:51;;;;;;;2.83;1.60;;;;;;;17.44;49.22;95785.72;10386367;28;20121;-31
2023/12/11 06:04:51;;;;;;;2.03;1.35;;;;;;;17.43;48.54;95786.56;10384770;28;20038;-30
2023/12/11 06:09:51;;;;;;;2.35;1.10;;;;;;;17.43;48.51;95805.13;10389967;28;20029;-31
2023/12/11 06:14:52;;;;;;;1.97;1.43;;;;;;;17.44;49.05;95813.56;10387217;28;20498;-32
2023/12/11 06:19:52;;;;;;;4.10;1.80;;;;;;;17.43;48.99;95804.28;10400632;28;20372;-30
2023/12/11 06:24:52;;;;;;;3.23;1.67;;;;;;;17.43;48.65;95779.00;10396393;28;20296;-31
2023/12/11 06:29:54;;;;;;;1.60;1.20;;;;;;;17.40;48.85;95771.44;10394192;28;20044;-29
2023/12/11 06:34:54;;;;;;;4.55;1.30;;;;;;;17.33;49.53;95767.25;10402424;28;20026;-37
2023/12/11 06:39:54;;;;;;;1.70;1.10;;;;;;;17.40;48.73;95784.09;10396203;28;20514;-31
2023/12/11 06:44:55;;;;;;;4.72;1.42;;;;;;;17.41;49.01;95780.69;10395450;28;20041;-31
2023/12/11 06:49:55;;;;;;;2.35;1.17;;;;;;;17.35;48.92;95758.81;10399450;28;20033;-31
2023/12/11 06:54:56;;;;;;;2.57;1.67;;;;;;;17.42;49.01;95749.47;10402181;28;20041;-31
2023/12/11 06:59:56;;;;;;;2.88;1.00;;;;;;;17.40;48.86;95731.78;10397075;28;20022;-30
2023/12/11 07:04:57;;;;;;;2.58;1.40;;;;;;;17.39;49.11;95709.88;10394907;28;20099;-30
2023/12/11 07:10:03;;;;;;;2.23;1.33;;;;;;;17.39;49.72;95711.53;10393445;28;20029;-31
2023/12/11 07:15:04;;;;;;;;;;;;;;;17.38;48.82;95710.72;10398454;28;20472;-31
2023/12/11 07:20:06;;;;;;;2.00;1.00;;;;;;;17.37;49.35;95703.16;10391542;28;19917;-31
2023/12/11 07:25:06;;;;;;;2.80;1.45;;;;;;;17.36;49.24;95719.19;10390560;28;20100;-29
2023/12/11 07:30:08;;;;;;;1.65;1.17;;;;;;;17.35;48.74;95743.63;10391949;28;20037;-30
2023/12/11 07:35:11;;;;;;;2.92;1.00;;;;;;;17.37;49.38;95763.88;10389159;28;20017;-30
2023/12/11 07:40:11;;;;;;;1.77;1.02;;;;;;;17.37;48.90;95795.06;10395527;28;20033;-30
2023/12/11 07:45:12;;;;;;;2.08;1.35;;;;;;;17.34;48.90;95804.34;10389507;28;20030;-31
2023/12/11 07:50:13;;;;;;;1.52;1.02;;;;;;;17.35;49.28;95796.75;10390666;28;20030;-30
2023/12/11 07:55:13;;;;;;;2.53;1.30;;;;;;;17.36;48.80;95787.50;10390747;28;20401;-31
2023/12/11 08:00:14;;;;;;;1.73;0.82;;;;;;;17.34;48.63;95782.41;10389617;28;20305;-30
2023/12/11 08:05:14;;;;;;;2.28;1.48;;;;;;;17.35;49.21;95773.13;10390946;28;20069;-31
2023/12/11 08:10:16;;;;;;;2.17;1.30;;;;;;;17.30;49.48;95740.31;10394085;28;20164;-31
2023/12/11 08:15:16;;;;;;;1.90;1.00;;;;;;;17.36;49.54;95739.41;10389757;28;20297;-31
2023/12/11 08:20:17;;;;;;;3.40;1.27;;;;;;;17.37;49.66;95733.50;10386315;28;20408;-30
2023/12/11 08:25:18;;;;;;;1.35;1.00;;;;;;;17.35;49.79;95718.34;10390489;28;20507;-30
2023/12/11 08:30:18;;;;;;;1.70;1.20;;;;;;;17.36;49.84;95732.69;10389353;28;20049;-31
2023/12/11 08:35:18;;;;;;;1.87;0.80;;;;;;;17.36;50.16;95787.50;10385767;28;20033;-30
2023/12/11 08:40:20;;;;;;;2.57;0.90;;;;;;;17.37;49.70;95804.34;10388117;28;20308;-30
2023/12/11 08:45:20;;;;;;;1.55;0.90;;;;;;;17.36;49.75;95816.16;10383416;28;20053;-32
2023/12/11 08:50:21;;;;;;;2.07;1.10;;;;;;;17.33;49.94;95822.91;10387752;28;20042;-31
2023/12/11 08:55:21;;;;;;;1.17;0.93;;;;;;;17.34;49.44;95809.41;10383565;28;20416;-31
2023/12/11 09:00:22;;;;;;;1.60;1.03;;;;;;;17.33;49.09;95784.97;10385195;28;20303;-31
2023/12/11 09:05:22;;;;;;;1.58;1.15;;;;;;;17.33;49.32;95783.25;10386913;28;20041;-30
2023/12/11 09:10:23;;;;;;;1.00;0.80;;;;;;;17.31;49.24;95790.03;10386590;28;20033;-30
2023/12/11 09:15:23;;;;;;;1.85;1.00;;;;;;;17.33;49.62;95817.84;10385398;28;20395;-32
2023/12/11 09:20:24;;;;;;;1.53;1.13;;;;;;;17.34;49.17;95815.28;10386409;28;20081;-30
2023/12/11 09:25:24;;;;;;;2.27;1.30;;;;;;;17.33;49.21;95845.69;10388721;28;20037;-31
2023/12/11 09:30:24;;;;;;;1.03;0.50;;;;;;;17.32;49.45;95823.78;10393857;28;20062;-31
2023/12/11 09:35:25;;;;;;;1.70;1.13;;;;;;;17.32;49.61;95811.94;10390062;28;20284;-30
2023/12/11 09:40:25;;;;;;;1.20;0.90;;;;;;;17.33;49.77;95826.28;10385580;28;20298;-30
2023/12/11 09:45:26;;;;;;;1.80;1.00;;;;;;;17.31;50.01;95824.63;10388692;28;20574;-31
2023/12/11 09:50:27;;;;;;;1.60;0.90;;;;;;;17.32;48.98;95818.72;10395269;28;20125;-30
2023/12/11 09:55:27;;;;;;;1.52;1.00;;;;;;;17.30;49.42;95802.69;10387661;28;20113;-30
2023/12/11 10:00:28;;;;;;;1.27;0.80;;;;;;;17.33;49.30;95812.78;10389996;28;20038;-30
2023/12/11 10:05:28;;;;;;;1.60;0.88;;;;;;;17.32;49.35;95826.31;10393512;28;20041;-32
2023/12/11 10:10:33;;;;;;;0.80;0.80;;;;;;;17.33;49.22;95817.84;10389496;28;20400;-30
2023/12/11 10:15:35;;;;;;;2.65;0.85;;;;;;;17.33;49.58;95863.41;10396428;28;20037;-30
2023/12/11 10:20:37;;;;;;;1.67;0.95;;;;;;;17.32;49.67;95849.06;10382668;28;20046;-32
2023/12/11 10:25:42;;;;;;;2.13;1.17;;;;;;;17.26;48.80;95821.28;10383724;28;20112;-30
2023/12/11 10:30:59;;;;;;;0.70;0.70;;;;;;;17.29;48.99;95844.88;10384171;28;20034;-30
2023/12/11 10:36:25;;;;;;;2.57;1.00;;;;;;;17.30;49.71;95826.31;10381791;28;20067;-30
2023/12/11 10:41:26;;;;;;;1.23;0.70;;;;;;;17.30;48.92;95835.56;10384408;28;20054;-30
2023/12/11 10:46:26;;;;;;;1.27;0.80;;;;;;;17.31;49.29;95814.50;10380084;28;20512;-30
2023/12/11 10:51:27;;;;;;;0.93;0.70;;;;;;;17.29;49.29;95785.84;10383348;28;20404;-30
2023/12/11 10:56:28;;;;;;;1.25;0.90;;;;;;;17.28;48.95;95779.09;10384754;28;20284;-30
2023/12/11 11:01:29;;;;;;;1.83;1.13;;;;;;;17.30;49.26;95827.97;10380755;28;20036;-31
2023/12/11 11:06:38;;;;;;;1.73;0.80;;;;;;;17.29;48.70;95838.97;10391278;28;20494;-30
2023/12/11 11:11:48;;;;;;;1.40;0.82;;;;;;;17.28;48.81;95865.13;10402697;28;20036;-30
2023/12/11 11:16:56;;;;;;;0.70;0.70;;;;;;;17.26;48.46;95867.66;10387963;28;20488;-30
2023/12/11 11:22:08;;;;;;;0.63;0.50;;;;;;;17.28;48.72;95842.34;10389628;28;20108;-30
2023/12/11 11:27:39;;;;;;;1.25;1.15;;;;;;;17.31;48.71;95852.47;10382499;28;20033;-31
2023/12/11 11:32:57;;;;;;;0.95;0.80;;;;;;;17.34;48.84;95858.28;10387299;28;20634;-30
2023/12/11 11:37:58;;;;;;;2.25;1.02;;;;;;;17.38;49.14;95864.19;10385099;28;20029;-31
2023/12/11 11:42:58;;;;;;;3.15;0.88;;;;;;;17.24;50.01;95854.19;10390730;28;20045;-30
2023/12/11 11:47:58;;;;;;;1.57;0.80;;;;;;;17.41;49.71;95874.31;10383115;28;20502;-32
2023/12/11 11:53:07;;;;;;;1.40;0.90;;;;;;;17.40;50.11;95854.94;10385654;28;20124;-30
2023/12/11 11:58:12;;;;;;;1.38;0.70;;;;;;;17.38;49.86;95861.66;10391113;28;20026;-30
2023/12/11 12:03:13;;;;;;;1.33;0.70;;;;;;;17.40;49.64;95865.88;10386344;28;20044;-30
2023/12/11 12:08:13;;;;;;;0.83;0.67;;;;;;;17.37;49.14;95875.19;10386077;28;20038;-31
2023/12/11 12:13:14;;;;;;;1.53;0.70;;;;;;;17.43;49.78;95885.25;10380445;28;20518;-31
2023/12/11 12:18:14;;;;;;;3.15;1.30;;;;;;;17.41;51.47;95889.50;10385711;28;20100;-31
2023/12/11 12:23:15;;;;;;;2.10;0.73;;;;;;;17.37;49.10;95880.25;10377752;28;20042;-30
2023/12/11 12:28:15;;;;;;;2.28;0.80;;;;;;;17.34;48.60;95886.13;10385546;28;20048;-30
2023/12/11 12:33:18;;;;;;;4.03;1.10;;;;;;;17.37;48.79;95890.34;10378430;28;20038;-32
2023/12/11 12:38:19;;;;;;;1.30;1.05;;;;;;;17.36;48.59;95883.63;10387012;28;20038;-31
2023/12/11 12:43:19;;;;;;;0.90;0.70;;;;;;;17.38;49.41;95899.63;10385206;28;20423;-30
2023/12/11 12:48:29;;;;;;;1.97;1.10;;;;;;;17.35;49.37;95890.38;10379427;28;20030;-30
2023/12/11 12:53:29;;;;;;;0.85;0.70;;;;;;;17.36;48.89;95898.81;10382329;28;20321;-31
2023/12/11 12:58:30;;;;;;;1.17;0.77;;;;;;;17.37;49.14;95905.53;10383373;28;20040;-30
2023/12/11 13:03:30;;;;;;;2.83;0.93;;;;;;;17.34;48.90;95908.06;10381507;28;20136;-31
2023/12/11 13:08:41;;;;;;;1.57;0.90;;;;;;;17.36;48.83;95916.50;10384633;28;20034;-32
2023/12/11 13:13:55;;;;;;;1.23;0.80;;;;;;;17.37;49.19;95901.34;10379135;28;20048;-31
2023/12/11 13:18:55;;;;;;;1.33;0.70;;;;;;;17.37;48.92;95916.50;10382348;28;20040;-31
2023/12/11 13:23:55;;;;;;;6.47;1.07;;;;;;;17.37;51.33;95920.72;10378839;28;20034;-31
2023/12/11 13:28:56;;;;;;;16.07;1.63;;;;;;;17.37;50.85;95925.78;10380772;28;20156;-31
2023/12/11 13:33:56;;;;;;;14.75;1.70;;;;;;;17.39;50.32;95921.53;10377614;28;20029;-30
2023/12/11 13:38:57;;;;;;;5.33;1.17;;;;;;;17.36;50.41;95929.16;10382515;28;20109;-30
2023/12/11 13:43:57;;;;;;;1.65;0.77;;;;;;;17.39;50.13;95929.13;10381139;28;20040;-30
2023/12/11 13:48:57;;;;;;;1.90;0.87;;;;;;;17.33;51.79;95919.06;10382923;28;20037;-30
2023/12/11 13:54:00;;;;;;;3.17;1.10;;;;;;;17.40;51.57;95926.59;10397987;28;20041;-30
2023/12/11 13:59:00;;;;;;;10.50;1.13;;;;;;;17.47;52.38;95927.38;10409105;28;20092;-30
2023/12/11 14:04:01;;;;;;;4.50;1.20;;;;;;;17.60;52.20;95934.88;10399188;28;20076;-30
2023/12/11 14:09:03;;;;;;;3.70;1.00;;;;;;;17.61;52.54;95953.41;10407170;28;20045;-32
2023/12/11 14:14:03;;;;;;;2.78;0.93;;;;;;;17.71;51.89;95953.31;10392754;28;20474;-30
2023/12/11 14:19:04;;;;;;;2.57;0.97;;;;;;;17.75;51.93;95946.53;10409505;28;20091;-30
2023/12/11 14:24:06;;;;;;;1.13;1.00;;;;;;;17.78;51.65;95938.91;10408776;28;20038;-31
2023/12/11 14:29:06;;;;;;;5.03;1.40;;;;;;;17.84;51.21;95943.91;10388819;28;20061;-31
2023/12/11 14:34:06;;;;;;;1.40;1.03;;;;;;;17.88;51.33;95945.56;10399574;28;20488;-30
2023/12/11 14:39:07;;;;;;;1.40;1.30;;;;;;;17.91;51.19;95960.72;10397715;28;20156;-31
2023/12/11 14:44:07;;;;;;;2.83;1.40;;;;;;;17.93;50.74;95954.78;10405867;28;20033;-30
2023/12/11 14:49:07;;;;;;;2.27;1.03;;;;;;;17.95;50.66;95957.31;10399608;28;20133;-30
2023/12/11 14:54:08;;;;;;;3.43;1.47;;;;;;;17.95;50.86;95968.28;10420733;28;20480;-30
2023/12/11 14:59:09;;;;;;;4.40;1.17;;;;;;;17.99;51.00;95979.22;10411076;28;20030;-30
2023/12/11 15:04:09;;;;;;;4.25;1.27;;;;;;;18.02;50.89;95984.25;10407181;28;20069;-30
2023/12/11 15:09:13;;;;;;;1.37;0.90;;;;;;;18.04;50.50;95992.66;10412101;28;20411;-31
2023/12/11 15:14:14;;;;;;;1.42;1.10;;;;;;;18.07;50.60;95997.72;10398734;28;20069;-31
2023/12/11 15:19:14;;;;;;;1.97;0.97;;;;;;;18.04;50.24;95982.53;10405799;28;20033;-31
2023/12/11 15:24:14;;;;;;;3.03;1.27;;;;;;;17.90;50.55;95985.19;10411587;28;20041;-30
2023/12/11 15:29:15;;;;;;;3.80;1.27;;;;;;;17.87;50.14;95995.38;10404011;28;20034;-30
2023/12/11 15:34:17;;;;;;;1.30;1.00;;;;;;;17.83;50.48;96005.53;10397083;28;20288;-32
2023/12/11 15:39:18;;;;;;;6.47;1.38;;;;;;;17.91;52.06;96017.25;10401628;28;20053;-30
2023/12/11 15:44:18;;;;;;;1.38;0.80;;;;;;;17.91;51.11;96011.38;10397601;28;20108;-30
2023/12/11 15:49:19;;;;;;;1.77;1.00;;;;;;;17.90;50.68;96024.91;10399903;28;20037;-30
2023/12/11 15:54:19;;;;;;;5.67;1.10;;;;;;;17.87;50.22;96022.38;10402352;28;20090;-30
2023/12/11 15:59:19;;;;;;;1.17;0.93;;;;;;;17.82;50.90;96024.94;10392354;28;20391;-30
2023/12/11 16:04:20;;;;;;;1.87;0.90;;;;;;;17.79;50.88;96031.72;10402966;28;20034;-31
2023/12/11 16:09:21;;;;;;;2.00;0.87;;;;;;;17.79;50.76;96034.25;10406473;28;20030;-31
2023/12/11 16:14:22;;;;;;;2.60;1.15;;;;;;;17.79;50.78;96041.84;10402234;28;20119;-30
2023/12/11 16:19:22;;;;;;;2.72;1.60;;;;;;;17.80;50.86;96043.53;10399104;28;20052;-28
2023/12/11 16:24:22;;;;;;;3.90;0.93;;;;;;;17.75;50.70;96035.97;10397988;28;20099;-30
2023/12/11 16:29:23;;;;;;;5.13;1.47;;;;;;;17.75;51.12;96043.56;10404220;28;20231;-30
2023/12/11 16:34:23;;;;;;;2.03;1.38;;;;;;;17.73;50.92;96057.09;10391572;28;20029;-30
2023/12/11 16:39:23;;;;;;;2.73;1.10;;;;;;;17.66;50.80;96068.94;10400845;28;20152;-30
2023/12/11 16:44:24;;;;;;;3.30;1.97;;;;;;;17.69;50.57;96060.50;10396470;28;20294;-31
2023/12/11 16:49:24;;;;;;;6.43;1.43;;;;;;;17.68;51.29;96064.72;10397894;28;20513;-30
2023/12/11 16:54:24;;;;;;;2.83;1.80;;;;;;;17.69;50.13;96070.63;10399656;28;20041;-31
2023/12/11 16:59:25;;;;;;;4.07;2.10;;;;;;;17.66;51.13;96085.84;10397582;28;20029;-31
2023/12/11 17:04:25;;;;;;;2.80;1.13;;;;;;;17.61;50.76;96083.34;10399208;28;20111;-30
2023/12/11 17:09:25;;;;;;;2.07;1.13;;;;;;;17.57;50.47;96080.84;10389864;28;20495;-31
2023/12/11 17:14:26;;;;;;;2.30;1.07;;;;;;;17.56;51.50;96081.69;10401380;28;20060;-30
2023/12/11 17:19:26;;;;;;;3.90;1.10;;;;;;;17.61;50.61;96075.75;10395810;28;20080;-30
2023/12/11 17:24:26;;;;;;;3.53;1.20;;;;;;;17.63;51.77;96081.63;10393026;28;20761;-30
2023/12/11 17:29:27;;;;;;;3.70;1.30;;;;;;;17.63;50.79;96080.78;10391823;28;20037;-30
2023/12/11 17:34:27;;;;;;;5.10;1.55;;;;;;;17.76;51.28;96090.00;10389154;28;20032;-31
2023/12/11 17:39:28;;;;;;;5.20;1.37;;;;;;;17.84;51.67;96075.56;10398962;28;20032;-31
2023/12/11 17:44:28;;;;;;;3.00;1.50;;;;;;;17.91;51.21;96078.03;10396397;28;20041;-31
2023/12/11 17:49:29;;;;;;;3.85;1.35;;;;;;;18.00;50.62;96079.66;10390690;28;20038;-30
2023/12/11 17:54:29;;;;;;;1.93;1.37;;;;;;;18.03;50.84;96072.03;10400442;28;20126;-30
2023/12/11 17:59:30;;;;;;;4.60;1.40;;;;;;;18.12;50.45;96087.16;10389409;28;20794;-30
2023/12/11 18:04:30;;;;;;;3.00;1.70;;;;;;;18.15;50.73;96092.22;10394636;28;20103;-30
2023/12/11 18:09:35;;;;;;;2.73;1.03;;;;;;;17.99;51.07;96098.25;10388184;28;20044;-30
2023/12/11 18:14:35;;;;;;;2.72;1.45;;;;;;;17.90;52.96;96100.88;10396424;28;20494;-30
2023/12/11 18:19:35;;;;;;;4.50;1.37;;;;;;;17.92;51.54;96104.22;10393088;28;20036;-30
2023/12/11 18:24:36;;;;;;;3.50;1.17;;;;;;;18.06;50.83;96110.00;10399531;28;20029;-32
2023/12/11 18:29:37;;;;;;;2.73;2.30;;;;;;;17.96;50.33;96121.91;10395278;28;20406;-30
2023/12/11 18:34:37;;;;;;;4.20;1.48;;;;;;;17.89;51.29;96119.41;10395619;28;20037;-31
2023/12/11 18:39:37;;;;;;;3.80;1.30;;;;;;;17.87;50.81;96126.19;10396942;28;20026;-31
2023/12/11 18:44:38;;;;;;;2.57;1.33;;;;;;;17.85;50.53;96118.63;10400183;28;20112;-31
2023/12/11 18:49:42;;;;;;;3.33;1.40;;;;;;;17.84;50.69;96131.28;10396955;28;20030;-30
2023/12/11 18:54:43;;;;;;;6.30;1.88;;;;;;;17.78;50.51;96136.38;10390960;28;20032;-32
2023/12/11 18:59:44;;;;;;;4.60;1.00;;;;;;;17.80;50.86;96135.53;10394675;28;20511;-30
2023/12/11 19:04:44;;;;;;;2.50;1.00;;;;;;;17.76;50.84;96133.03;10401674;28;20041;-31
2023/12/11 19:09:46;;;;;;;2.17;1.02;;;;;;;17.75;50.59;96141.47;10392688;28;20502;-32
2023/12/11 19:14:46;;;;;;;2.85;1.23;;;;;;;17.77;49.67;96152.44;10387695;28;20310;-30
2023/12/11 19:19:46;;;;;;;2.67;1.60;;;;;;;17.75;50.62;96147.34;10402055;28;20029;-30
2023/12/11 19:24:47;;;;;;;2.77;1.10;;;;;;;17.74;50.24;96149.94;10392122;28;20491;-30
2023/12/11 19:29:47;;;;;;;2.27;1.17;;;;;;;17.72;49.82;96166.78;10387962;28;20163;-30
2023/12/11 19:34:47;;;;;;;6.20;1.03;;;;;;;17.73;52.78;96155.84;10391661;28;20160;-31
2023/12/11 19:39:48;;;;;;;4.07;1.30;;;;;;;17.79;52.48;96154.09;10392712;28;20032;-31
2023/12/11 19:44:48;;;;;;;4.83;1.10;;;;;;;17.87;52.20;96149.84;10397745;28;20064;-31
2023/12/11 19:49:48;;;;;;;3.10;1.10;;;;;;;17.98;52.54;96170.84;10399734;28;20049;-31
2023/12/11 19:54:49;;;;;;;3.60;1.60;;;;;;;18.07;53.52;96164.91;10395542;28;20036;-31
2023/12/11 19:59:49;;;;;;;5.60;1.50;;;;;;;18.16;53.43;96169.88;10400125;28;20029;-30
2023/12/11 20:04:49;;;;;;;6.22;1.20;;;;;;;18.09;53.80;96178.38;10360068;28;20280;-30
2023/12/11 20:09:50;;;;;;;5.87;1.53;;;;;;;18.06;53.99;96188.50;10392065;28;20534;-30
2023/12/11 20:14:51;;;;;;;9.07;1.55;;;;;;;18.03;54.11;96171.66;10398507;28;20582;-30
2023/12/11 20:19:51;;;;;;;2.77;1.10;;;;;;;18.01;54.27;96172.53;10397444;28;20116;-30
2023/12/11 20:24:54;;;;;;;1.77;1.10;;;;;;;17.99;54.55;96172.53;10399898;28;20160;-30
2023/12/11 20:29:54;;;;;;;4.57;1.27;;;;;;;17.99;54.40;96164.94;10395169;28;20036;-33
2023/12/11 20:34:55;;;;;;;3.60;1.50;;;;;;;17.98;54.56;96173.38;10394229;28;20048;-30
2023/12/11 20:39:55;;;;;;;5.87;1.20;;;;;;;17.98;54.04;96175.09;10397658;28;20030;-30
2023/12/11 20:44:56;;;;;;;2.27;1.10;;;;;;;17.97;54.12;96183.50;10403314;28;20052;-30
2023/12/11 20:49:56;;;;;;;2.67;1.07;;;;;;;17.98;53.96;96170.03;10404527;28;20629;-32
2023/12/11 20:54:57;;;;;;;4.40;1.20;;;;;;;17.96;54.24;96182.69;10390389;28;20041;-31
2023/12/11 20:59:59;;;;;;;2.17;1.17;;;;;;;17.96;53.99;96187.75;10394177;28;20311;-31
2023/12/11 21:05:00;;;;;;;2.95;1.40;;;;;;;17.94;54.02;96191.13;10393186;28;20033;-32
2023/12/11 21:10:01;;;;;;;2.67;1.25;;;;;;;17.93;54.03;96184.41;10394706;28;20406;-31
2023/12/11 21:15:02;;;;;;;4.47;1.83;;;;;;;17.91;53.71;96175.97;10397282;28;20462;-30
2023/12/11 21:20:03;;;;;;;4.55;1.38;;;;;;;17.92;53.70;96175.94;10391919;28;20083;-31
2023/12/11 21:25:04;;;;;;;3.88;1.67;;;;;;;17.93;53.66;96186.94;10391826;28;20087;-31
2023/12/11 21:30:07;;;;;;;3.10;1.15;;;;;;;17.91;53.70;96165.84;10391116;28;20387;-30
2023/12/11 21:35:07;;;;;;;1.58;0.98;;;;;;;17.91;53.49;96178.50;10390492;28;20042;-31
2023/12/11 21:40:08;;;;;;;1.25;0.80;;;;;;;17.90;53.56;96169.22;10395788;28;20033;-30
2023/12/11 21:45:09;;;;;;;3.00;1.00;;;;;;;17.88;53.50;96183.56;10393524;28;20026;-31
2023/12/11 21:50:09;;;;;;;2.13;0.95;;;;;;;17.88;53.36;96168.38;10392030;28;20049;-31
2023/12/11 21:55:12;;;;;;;2.77;1.67;;;;;;;17.88;53.29;96173.44;10391026;28;20046;-31
2023/12/11 22:00:12;;;;;;;2.85;1.30;;;;;;;17.88;53.22;96184.44;10393953;28;20041;-31
2023/12/11 22:05:13;;;;;;;2.00;1.05;;;;;;;17.88;53.04;96188.63;10391679;28;20057;-32
2023/12/11 22:10:13;;;;;;;1.73;0.88;;;;;;;17.87;53.04;96186.97;10391518;28;20033;-30
2023/12/11 22:15:15;;;;;;;2.58;0.80;;;;;;;17.87;53.01;96176.84;10396273;28;20446;-30
2023/12/11 22:20:15;;;;;;;1.95;0.90;;;;;;;17.88;53.04;96173.44;10397046;28;20052;-30
2023/12/11 22:25:16;;;;;;;3.50;0.88;;;;;;;17.85;54.20;96148.16;10389984;28;20034;-31
2023/12/11 22:30:17;;;;;;;2.58;1.08;;;;;;;17.87;53.27;96157.44;10385143;28;20400;-31
2023/12/11 22:35:19;;;;;;;2.50;1.00;;;;;;;17.90;52.99;96151.50;10402840;28;20047;-30
2023/12/11 22:40:19;;;;;;;1.65;0.90;;;;;;;17.89;53.37;96144.72;10388963;28;20060;-31
2023/12/11 22:45:21;;;;;;;4.43;1.17;;;;;;;17.90;53.28;96159.94;10399037;28;20085;-30
2023/12/11 22:50:21;;;;;;;7.40;1.25;;;;;;;17.91;53.39;96169.19;10405581;28;20402;-31
2023/12/11 22:55:22;;;;;;;3.70;1.07;;;;;;;17.90;53.72;96167.53;10404065;28;20063;-30
2023/12/11 23:00:26;;;;;;;5.37;1.40;;;;;;;17.91;54.02;96168.38;10398861;28;20306;-31
2023/12/11 23:05:26;;;;;;;3.88;0.95;;;;;;;17.89;53.61;96170.91;10402277;28;20040;-30
2023/12/11 23:10:27;;;;;;;3.90;1.13;;;;;;;17.85;54.25;96158.28;10410669;28;20048;-31
2023/12/11 23:15:27;;;;;;;5.00;1.02;;;;;;;17.87;53.90;96151.50;10411842;28;20033;-31
2023/12/11 23:20:28;;;;;;;4.00;1.13;;;;;;;17.87;54.16;96156.56;10412872;28;20037;-30